sensor_id;sensor_type;location;lat;lon;timestamp;pressure;altitude;pressure_sealevel;temperature;humidity
69879;BME280;57161;43.136;24.706;2023-12-22T00:01:24;97603.63;;;1.10;76.91
69879;BME280;57161;43.136;24.706;2023-12-22T00:03:49;97604.53;;;0.99;77.04
69879;BME280;57161;43.136;24.706;2023-12-22T00:06:15;97592.47;;;0.83;76.74
69879;BME280;57161;43.136;24.706;2023-12-22T00:08:41;97629.84;;;1.16;77.53
69879;BME280;57161;43.136;24.706;2023-12-22T00:11:07;97580.66;;;0.88;77.72
69879;BME280;57161;43.136;24.706;2023-12-22T00:13:32;97612.59;;;1.16;77.73
69879;BME280;57161;43.136;24.706;2023-12-22T00:15:59;97608.78;;;1.19;77.88
69879;BME280;57161;43.136;24.706;2023-12-22T00:18:25;97593.69;;;1.07;77.85
69879;BME280;57161;43.136;24.706;2023-12-22T00:20:51;97576.44;;;1.06;77.85
69879;BME280;57161;43.136;24.706;2023-12-22T00:23:16;97598.97;;;1.24;77.33
69879;BME280;57161;43.136;24.706;2023-12-22T00:25:42;97598.53;;;1.38;77.65
69879;BME280;57161;43.136;24.706;2023-12-22T00:28:07;97587.19;;;1.47;76.80
69879;BME280;57161;43.136;24.706;2023-12-22T00:30:33;97577.44;;;1.46;76.25
69879;BME280;57161;43.136;24.706;2023-12-22T00:32:59;97566.78;;;1.37;75.66
69879;BME280;57161;43.136;24.706;2023-12-22T00:35:24;97545.31;;;1.36;75.08
69879;BME280;57161;43.136;24.706;2023-12-22T00:37:50;97566.88;;;1.50;75.61
69879;BME280;57161;43.136;24.706;2023-12-22T00:40:15;97548.28;;;1.38;75.50
69879;BME280;57161;43.136;24.706;2023-12-22T00:42:41;97548.88;;;1.49;75.91
69879;BME280;57161;43.136;24.706;2023-12-22T00:45:06;97533.47;;;1.22;76.07
69879;BME280;57161;43.136;24.706;2023-12-22T00:47:32;97525.59;;;1.50;75.00
69879;BME280;57161;43.136;24.706;2023-12-22T00:50:01;97546.22;;;1.76;74.27
69879;BME280;57161;43.136;24.706;2023-12-22T00:52:27;97529.41;;;1.61;74.02
69879;BME280;57161;43.136;24.706;2023-12-22T00:54:52;97537.31;;;1.70;73.61
69879;BME280;57161;43.136;24.706;2023-12-22T00:57:18;97534.09;;;1.85;72.84
69879;BME280;57161;43.136;24.706;2023-12-22T00:59:43;97518.63;;;1.82;72.98
69879;BME280;57161;43.136;24.706;2023-12-22T01:02:13;97529.66;;;1.95;71.77
69879;BME280;57161;43.136;24.706;2023-12-22T01:04:39;97497.22;;;1.88;71.28
69879;BME280;57161;43.136;24.706;2023-12-22T01:07:07;97518.25;;;2.04;72.37
69879;BME280;57161;43.136;24.706;2023-12-22T01:09:33;97523.97;;;2.06;73.02
69879;BME280;57161;43.136;24.706;2023-12-22T01:11:58;97513.38;;;2.10;73.75
69879;BME280;57161;43.136;24.706;2023-12-22T01:14:24;97518.81;;;2.16;73.78
69879;BME280;57161;43.136;24.706;2023-12-22T01:16:49;97474.97;;;1.86;74.10
69879;BME280;57161;43.136;24.706;2023-12-22T01:19:15;97475.72;;;1.86;74.77
69879;BME280;57161;43.136;24.706;2023-12-22T01:21:40;97482.94;;;1.89;74.60
69879;BME280;57161;43.136;24.706;2023-12-22T01:24:06;97498.84;;;2.09;74.04
69879;BME280;57161;43.136;24.706;2023-12-22T01:26:31;97490.59;;;2.09;73.37
69879;BME280;57161;43.136;24.706;2023-12-22T01:28:57;97481.19;;;2.18;71.23
69879;BME280;57161;43.136;24.706;2023-12-22T01:31:22;97475.69;;;2.18;71.17
69879;BME280;57161;43.136;24.706;2023-12-22T01:33:48;97491.16;;;2.21;71.38
69879;BME280;57161;43.136;24.706;2023-12-22T01:36:13;97431.75;;;1.94;72.29
69879;BME280;57161;43.136;24.706;2023-12-22T01:38:39;97483.09;;;2.23;72.99
69879;BME280;57161;43.136;24.706;2023-12-22T01:41:04;97444.06;;;2.06;73.18
69879;BME280;57161;43.136;24.706;2023-12-22T01:43:29;97452.34;;;2.19;72.99
69879;BME280;57161;43.136;24.706;2023-12-22T01:45:56;97448.75;;;2.37;70.36
69879;BME280;57161;43.136;24.706;2023-12-22T01:48:24;97447.69;;;2.40;70.20
69879;BME280;57161;43.136;24.706;2023-12-22T01:50:52;97432.00;;;2.35;69.40
69879;BME280;57161;43.136;24.706;2023-12-22T01:53:19;97442.06;;;2.59;68.17
69879;BME280;57161;43.136;24.706;2023-12-22T01:55:47;97430.19;;;2.51;68.88
69879;BME280;57161;43.136;24.706;2023-12-22T01:58:13;97420.03;;;2.33;70.84
69879;BME280;57161;43.136;24.706;2023-12-22T02:00:39;97399.47;;;2.21;72.07
69879;BME280;57161;43.136;24.706;2023-12-22T02:03:05;97405.84;;;2.29;72.52
69879;BME280;57161;43.136;24.706;2023-12-22T02:05:31;97442.19;;;2.40;72.23
69879;BME280;57161;43.136;24.706;2023-12-22T02:07:57;97416.75;;;2.48;69.69
69879;BME280;57161;43.136;24.706;2023-12-22T02:10:22;97421.38;;;2.66;67.39
69879;BME280;57161;43.136;24.706;2023-12-22T02:12:48;97418.69;;;2.74;66.99
69879;BME280;57161;43.136;24.706;2023-12-22T02:15:14;97402.50;;;2.70;66.95
69879;BME280;57161;43.136;24.706;2023-12-22T02:17:49;97423.66;;;2.88;66.74
69879;BME280;57161;43.136;24.706;2023-12-22T02:20:18;97425.59;;;2.80;67.54
69879;BME280;57161;43.136;24.706;2023-12-22T02:22:44;97409.81;;;2.67;67.63
69879;BME280;57161;43.136;24.706;2023-12-22T02:25:10;97399.31;;;2.66;67.70
69879;BME280;57161;43.136;24.706;2023-12-22T02:27:45;97398.03;;;2.80;67.60
69879;BME280;57161;43.136;24.706;2023-12-22T02:30:15;97393.44;;;2.83;67.33
69879;BME280;57161;43.136;24.706;2023-12-22T02:32:48;97385.44;;;2.92;66.65
69879;BME280;57161;43.136;24.706;2023-12-22T02:35:17;97383.16;;;2.83;66.72
69879;BME280;57161;43.136;24.706;2023-12-22T02:37:46;97368.16;;;2.58;67.19
69879;BME280;57161;43.136;24.706;2023-12-22T02:40:12;97390.69;;;2.83;66.75
69879;BME280;57161;43.136;24.706;2023-12-22T02:42:38;97390.34;;;2.86;66.52
69879;BME280;57161;43.136;24.706;2023-12-22T02:45:05;97365.78;;;2.75;66.61
69879;BME280;57161;43.136;24.706;2023-12-22T02:47:31;97320.28;;;2.48;66.37
69879;BME280;57161;43.136;24.706;2023-12-22T02:49:58;97375.09;;;2.85;66.76
69879;BME280;57161;43.136;24.706;2023-12-22T02:52:24;97350.19;;;2.78;65.84
69879;BME280;57161;43.136;24.706;2023-12-22T02:54:50;97350.31;;;2.72;66.57
69879;BME280;57161;43.136;24.706;2023-12-22T02:57:15;97372.44;;;2.93;66.84
69879;BME280;57161;43.136;24.706;2023-12-22T02:59:41;97363.31;;;2.85;66.93
69879;BME280;57161;43.136;24.706;2023-12-22T03:02:06;97361.84;;;2.84;67.19
69879;BME280;57161;43.136;24.706;2023-12-22T03:04:32;97326.44;;;2.75;67.30
69879;BME280;57161;43.136;24.706;2023-12-22T03:06:57;97348.25;;;2.86;67.46
69879;BME280;57161;43.136;24.706;2023-12-22T03:09:23;97354.47;;;2.99;67.59
69879;BME280;57161;43.136;24.706;2023-12-22T03:11:49;97333.28;;;2.94;67.40
69879;BME280;57161;43.136;24.706;2023-12-22T03:14:14;97360.56;;;3.06;67.70
69879;BME280;57161;43.136;24.706;2023-12-22T03:16:40;97338.50;;;3.06;67.38
69879;BME280;57161;43.136;24.706;2023-12-22T03:19:09;97358.09;;;3.15;67.32
69879;BME280;57161;43.136;24.706;2023-12-22T03:21:34;97349.09;;;3.15;67.77
69879;BME280;57161;43.136;24.706;2023-12-22T03:24:00;97342.09;;;3.14;67.74
69879;BME280;57161;43.136;24.706;2023-12-22T03:26:28;97347.41;;;3.12;68.00
69879;BME280;57161;43.136;24.706;2023-12-22T03:28:54;97332.06;;;3.03;68.37
69879;BME280;57161;43.136;24.706;2023-12-22T03:31:19;97346.00;;;3.18;68.28
69879;BME280;57161;43.136;24.706;2023-12-22T03:33:45;97336.03;;;3.15;68.05
69879;BME280;57161;43.136;24.706;2023-12-22T03:36:10;97350.78;;;3.18;67.60
69879;BME280;57161;43.136;24.706;2023-12-22T03:38:36;97354.22;;;3.11;68.27
69879;BME280;57161;43.136;24.706;2023-12-22T03:41:01;97313.66;;;2.85;68.54
69879;BME280;57161;43.136;24.706;2023-12-22T03:43:27;97347.81;;;3.16;68.86
69879;BME280;57161;43.136;24.706;2023-12-22T03:45:53;97345.97;;;2.97;69.12
69879;BME280;57161;43.136;24.706;2023-12-22T03:48:19;97349.97;;;3.10;69.70
69879;BME280;57161;43.136;24.706;2023-12-22T03:50:44;97331.50;;;3.05;69.59
69879;BME280;57161;43.136;24.706;2023-12-22T03:53:10;97329.56;;;3.13;69.84
69879;BME280;57161;43.136;24.706;2023-12-22T03:55:35;97344.25;;;3.28;70.19
69879;BME280;57161;43.136;24.706;2023-12-22T03:58:01;97326.56;;;3.52;69.47
69879;BME280;57161;43.136;24.706;2023-12-22T04:00:26;97350.75;;;4.16;68.30
69879;BME280;57161;43.136;24.706;2023-12-22T04:02:52;97328.03;;;4.54;66.60
69879;BME280;57161;43.136;24.706;2023-12-22T04:05:17;97361.22;;;5.05;65.82
69879;BME280;57161;43.136;24.706;2023-12-22T04:07:43;97347.03;;;5.24;64.77
69879;BME280;57161;43.136;24.706;2023-12-22T04:10:08;97324.69;;;5.53;63.53
69879;BME280;57161;43.136;24.706;2023-12-22T04:12:34;97362.88;;;6.23;61.85
69879;BME280;57161;43.136;24.706;2023-12-22T04:14:59;97353.22;;;6.31;61.55
69879;BME280;57161;43.136;24.706;2023-12-22T04:17:25;97365.38;;;6.51;61.21
69879;BME280;57161;43.136;24.706;2023-12-22T04:19:50;97353.50;;;6.58;61.10
69879;BME280;57161;43.136;24.706;2023-12-22T04:22:17;97345.53;;;6.62;61.11
69879;BME280;57161;43.136;24.706;2023-12-22T04:24:45;97352.66;;;6.81;60.91
69879;BME280;57161;43.136;24.706;2023-12-22T04:27:11;97341.72;;;6.90;60.47
69879;BME280;57161;43.136;24.706;2023-12-22T04:29:37;97341.38;;;7.11;60.17
69879;BME280;57161;43.136;24.706;2023-12-22T04:32:03;97346.81;;;7.34;60.04
69879;BME280;57161;43.136;24.706;2023-12-22T04:34:29;97357.81;;;7.49;60.33
69879;BME280;57161;43.136;24.706;2023-12-22T04:36:54;97357.50;;;7.63;60.31
69879;BME280;57161;43.136;24.706;2023-12-22T04:39:19;97322.44;;;7.50;60.03
69879;BME280;57161;43.136;24.706;2023-12-22T04:41:45;97356.63;;;7.77;59.94
69879;BME280;57161;43.136;24.706;2023-12-22T04:44:10;97355.59;;;7.90;60.45
69879;BME280;57161;43.136;24.706;2023-12-22T04:46:36;97313.41;;;7.84;59.82
69879;BME280;57161;43.136;24.706;2023-12-22T04:49:01;97338.03;;;8.05;59.05
69879;BME280;57161;43.136;24.706;2023-12-22T04:51:27;97335.75;;;8.11;59.32
69879;BME280;57161;43.136;24.706;2023-12-22T04:53:52;97333.13;;;8.13;58.61
69879;BME280;57161;43.136;24.706;2023-12-22T04:56:18;97342.63;;;8.27;58.22
69879;BME280;57161;43.136;24.706;2023-12-22T04:58:43;97349.03;;;8.37;58.17
69879;BME280;57161;43.136;24.706;2023-12-22T05:01:09;97341.50;;;8.30;58.27
69879;BME280;57161;43.136;24.706;2023-12-22T05:03:34;97347.81;;;8.48;58.05
69879;BME280;57161;43.136;24.706;2023-12-22T05:06:00;97331.25;;;8.33;58.08
69879;BME280;57161;43.136;24.706;2023-12-22T05:08:25;97340.19;;;8.49;58.24
69879;BME280;57161;43.136;24.706;2023-12-22T05:10:51;97343.94;;;8.43;57.91
69879;BME280;57161;43.136;24.706;2023-12-22T05:13:16;97338.47;;;8.53;57.97
69879;BME280;57161;43.136;24.706;2023-12-22T05:15:42;97350.06;;;8.59;58.68
69879;BME280;57161;43.136;24.706;2023-12-22T05:18:08;97354.50;;;8.62;59.14
69879;BME280;57161;43.136;24.706;2023-12-22T05:20:33;97343.13;;;8.51;59.32
69879;BME280;57161;43.136;24.706;2023-12-22T05:22:59;97329.56;;;8.37;59.87
69879;BME280;57161;43.136;24.706;2023-12-22T05:25:24;97326.44;;;8.33;60.43
69879;BME280;57161;43.136;24.706;2023-12-22T05:27:50;97338.72;;;8.48;61.23
69879;BME280;57161;43.136;24.706;2023-12-22T05:30:15;97327.25;;;8.43;62.40
69879;BME280;57161;43.136;24.706;2023-12-22T05:32:41;97321.06;;;8.35;63.55
69879;BME280;57161;43.136;24.706;2023-12-22T05:35:07;97319.72;;;8.19;64.59
69879;BME280;57161;43.136;24.706;2023-12-22T05:37:32;97316.06;;;8.17;64.58
69879;BME280;57161;43.136;24.706;2023-12-22T05:39:57;97335.25;;;8.22;64.79
69879;BME280;57161;43.136;24.706;2023-12-22T05:42:23;97338.72;;;8.30;65.00
69879;BME280;57161;43.136;24.706;2023-12-22T05:44:48;97327.97;;;8.27;64.79
69879;BME280;57161;43.136;24.706;2023-12-22T05:47:16;97322.19;;;8.32;64.87
69879;BME280;57161;43.136;24.706;2023-12-22T05:49:41;97322.19;;;8.32;64.70
69879;BME280;57161;43.136;24.706;2023-12-22T05:52:07;97295.16;;;8.25;64.91
69879;BME280;57161;43.136;24.706;2023-12-22T05:54:34;97313.50;;;8.28;65.48
69879;BME280;57161;43.136;24.706;2023-12-22T05:56:59;97309.34;;;8.20;65.72
69879;BME280;57161;43.136;24.706;2023-12-22T05:59:25;97303.19;;;8.04;65.82
69879;BME280;57161;43.136;24.706;2023-12-22T06:01:55;97323.50;;;8.14;66.67
69879;BME280;57161;43.136;24.706;2023-12-22T06:04:21;97309.00;;;7.98;66.43
69879;BME280;57161;43.136;24.706;2023-12-22T06:06:46;97284.19;;;7.75;66.63
69879;BME280;57161;43.136;24.706;2023-12-22T06:09:12;97281.84;;;7.72;66.45
69879;BME280;57161;43.136;24.706;2023-12-22T06:11:38;97311.22;;;7.82;66.74
69879;BME280;57161;43.136;24.706;2023-12-22T06:14:05;97309.38;;;7.77;66.87
69879;BME280;57161;43.136;24.706;2023-12-22T06:16:31;97305.78;;;7.67;67.28
69879;BME280;57161;43.136;24.706;2023-12-22T06:18:56;97295.13;;;7.56;67.35
69879;BME280;57161;43.136;24.706;2023-12-22T06:21:22;97296.84;;;7.51;67.17
69879;BME280;57161;43.136;24.706;2023-12-22T06:23:48;97300.28;;;7.60;67.24
69879;BME280;57161;43.136;24.706;2023-12-22T06:26:14;97297.06;;;7.46;67.54
69879;BME280;57161;43.136;24.706;2023-12-22T06:28:39;97268.41;;;7.18;67.87
69879;BME280;57161;43.136;24.706;2023-12-22T06:31:09;97306.03;;;7.37;67.75
69879;BME280;57161;43.136;24.706;2023-12-22T06:33:43;97288.06;;;7.13;68.15
69879;BME280;57161;43.136;24.706;2023-12-22T06:36:26;97300.94;;;7.26;67.95
69879;BME280;57161;43.136;24.706;2023-12-22T06:38:52;97294.63;;;7.25;68.04
69879;BME280;57161;43.136;24.706;2023-12-22T06:41:28;97273.28;;;7.10;68.15
69879;BME280;57161;43.136;24.706;2023-12-22T06:43:55;97304.41;;;7.34;68.20
69879;BME280;57161;43.136;24.706;2023-12-22T06:46:24;97292.94;;;7.30;68.00
69879;BME280;57161;43.136;24.706;2023-12-22T06:48:52;97294.25;;;7.29;67.82
69879;BME280;57161;43.136;24.706;2023-12-22T06:51:20;97297.66;;;7.19;68.02
69879;BME280;57161;43.136;24.706;2023-12-22T06:53:49;97286.25;;;7.08;67.99
69879;BME280;57161;43.136;24.706;2023-12-22T06:56:21;97289.91;;;7.18;67.79
69879;BME280;57161;43.136;24.706;2023-12-22T06:58:47;97290.38;;;7.24;67.86
69879;BME280;57161;43.136;24.706;2023-12-22T07:01:34;97286.81;;;7.31;67.38
69879;BME280;57161;43.136;24.706;2023-12-22T07:04:01;97288.72;;;7.46;66.98
69879;BME280;57161;43.136;24.706;2023-12-22T07:06:29;97276.72;;;7.43;67.14
69879;BME280;57161;43.136;24.706;2023-12-22T07:09:27;97288.78;;;7.80;66.41
69879;BME280;57161;43.136;24.706;2023-12-22T07:11:44;97291.09;;;7.92;66.28
69879;BME280;57161;43.136;24.706;2023-12-22T07:14:09;97302.78;;;8.25;65.26
69879;BME280;57161;43.136;24.706;2023-12-22T07:16:36;97309.00;;;8.50;64.56
69879;BME280;57161;43.136;24.706;2023-12-22T07:19:02;97305.09;;;8.80;63.25
69879;BME280;57161;43.136;24.706;2023-12-22T07:21:28;97303.56;;;8.96;62.71
69879;BME280;57161;43.136;24.706;2023-12-22T07:23:53;97277.06;;;9.05;62.21
69879;BME280;57161;43.136;24.706;2023-12-22T07:26:19;97301.09;;;9.37;61.60
69879;BME280;57161;43.136;24.706;2023-12-22T07:28:47;97295.53;;;9.37;60.81
69879;BME280;57161;43.136;24.706;2023-12-22T07:31:12;97293.84;;;9.61;59.93
69879;BME280;57161;43.136;24.706;2023-12-22T07:33:38;97307.38;;;9.84;59.25
69879;BME280;57161;43.136;24.706;2023-12-22T07:36:04;97325.03;;;9.96;58.89
69879;BME280;57161;43.136;24.706;2023-12-22T07:38:30;97319.03;;;10.09;58.63
69879;BME280;57161;43.136;24.706;2023-12-22T07:40:55;97328.13;;;10.19;58.12
69879;BME280;57161;43.136;24.706;2023-12-22T07:43:21;97322.53;;;10.19;58.09
69879;BME280;57161;43.136;24.706;2023-12-22T07:45:46;97321.81;;;10.19;57.86
69879;BME280;57161;43.136;24.706;2023-12-22T07:48:13;97336.09;;;10.42;57.14
69879;BME280;57161;43.136;24.706;2023-12-22T07:50:39;97332.59;;;10.42;57.29
69879;BME280;57161;43.136;24.706;2023-12-22T07:53:04;97335.50;;;10.53;57.24
69879;BME280;57161;43.136;24.706;2023-12-22T07:55:30;97322.59;;;10.58;56.56
69879;BME280;57161;43.136;24.706;2023-12-22T07:57:55;97319.19;;;10.60;56.47
69879;BME280;57161;43.136;24.706;2023-12-22T08:00:21;97318.47;;;10.59;56.80
69879;BME280;57161;43.136;24.706;2023-12-22T08:02:47;97342.56;;;10.74;56.91
69879;BME280;57161;43.136;24.706;2023-12-22T08:05:13;97329.75;;;10.80;56.79
69879;BME280;57161;43.136;24.706;2023-12-22T08:07:38;97352.22;;;10.92;56.67
69879;BME280;57161;43.136;24.706;2023-12-22T08:10:04;97363.22;;;11.00;56.17
69879;BME280;57161;43.136;24.706;2023-12-22T08:12:29;97357.03;;;11.11;55.68
69879;BME280;57161;43.136;24.706;2023-12-22T08:14:57;97340.31;;;10.92;55.78
69879;BME280;57161;43.136;24.706;2023-12-22T08:17:23;97350.59;;;10.99;56.17
69879;BME280;57161;43.136;24.706;2023-12-22T08:19:49;97368.50;;;11.05;56.18
69879;BME280;57161;43.136;24.706;2023-12-22T08:22:15;97360.28;;;10.98;56.17
69879;BME280;57161;43.136;24.706;2023-12-22T08:24:40;97386.28;;;11.20;55.98
69879;BME280;57161;43.136;24.706;2023-12-22T08:27:07;97372.03;;;11.06;55.75
69879;BME280;57161;43.136;24.706;2023-12-22T08:29:32;97384.81;;;11.19;55.46
69879;BME280;57161;43.136;24.706;2023-12-22T08:31:58;97391.88;;;11.20;55.59
69879;BME280;57161;43.136;24.706;2023-12-22T08:34:24;97394.22;;;11.23;55.62
69879;BME280;57161;43.136;24.706;2023-12-22T08:36:49;97356.78;;;10.97;55.31
69879;BME280;57161;43.136;24.706;2023-12-22T08:39:15;97391.44;;;11.23;55.29
69879;BME280;57161;43.136;24.706;2023-12-22T08:41:41;97378.47;;;11.18;54.67
69879;BME280;57161;43.136;24.706;2023-12-22T08:44:07;97411.56;;;11.31;55.16
69879;BME280;57161;43.136;24.706;2023-12-22T08:46:34;97414.34;;;11.31;55.20
69879;BME280;57161;43.136;24.706;2023-12-22T08:48:59;97372.03;;;11.06;55.06
69879;BME280;57161;43.136;24.706;2023-12-22T08:51:26;97408.88;;;11.43;54.48
69879;BME280;57161;43.136;24.706;2023-12-22T08:53:53;97440.19;;;11.61;54.61
69879;BME280;57161;43.136;24.706;2023-12-22T08:56:21;97430.59;;;11.64;54.15
69879;BME280;57161;43.136;24.706;2023-12-22T08:58:47;97413.22;;;11.65;54.51
69879;BME280;57161;43.136;24.706;2023-12-22T09:01:16;97421.28;;;11.71;54.35
69879;BME280;57161;43.136;24.706;2023-12-22T09:03:41;97419.53;;;11.66;54.28
69879;BME280;57161;43.136;24.706;2023-12-22T09:06:14;97415.75;;;11.61;54.51
69879;BME280;57161;43.136;24.706;2023-12-22T09:08:41;97419.88;;;11.60;54.59
69879;BME280;57161;43.136;24.706;2023-12-22T09:11:07;97416.41;;;11.40;55.39
69879;BME280;57161;43.136;24.706;2023-12-22T09:13:33;97424.75;;;11.50;55.18
69879;BME280;57161;43.136;24.706;2023-12-22T09:16:01;97423.59;;;11.43;55.96
69879;BME280;57161;43.136;24.706;2023-12-22T09:18:27;97437.41;;;11.51;55.59
69879;BME280;57161;43.136;24.706;2023-12-22T09:20:53;97439.78;;;11.45;56.02
69879;BME280;57161;43.136;24.706;2023-12-22T09:23:18;97435.06;;;11.38;56.28
69879;BME280;57161;43.136;24.706;2023-12-22T09:25:45;97434.25;;;11.26;56.24
69879;BME280;57161;43.136;24.706;2023-12-22T09:28:10;97432.78;;;11.25;56.89
69879;BME280;57161;43.136;24.706;2023-12-22T09:30:36;97414.41;;;11.12;58.00
69879;BME280;57161;43.136;24.706;2023-12-22T09:33:01;97437.78;;;11.17;59.36
69879;BME280;57161;43.136;24.706;2023-12-22T09:35:27;97433.38;;;11.04;60.98
69879;BME280;57161;43.136;24.706;2023-12-22T09:37:53;97433.81;;;11.10;61.55
69879;BME280;57161;43.136;24.706;2023-12-22T09:40:19;97435.00;;;11.07;62.28
69879;BME280;57161;43.136;24.706;2023-12-22T09:42:45;97448.94;;;11.17;62.62
69879;BME280;57161;43.136;24.706;2023-12-22T09:45:11;97434.13;;;10.85;63.90
69879;BME280;57161;43.136;24.706;2023-12-22T09:47:41;97460.59;;;10.94;64.84
69879;BME280;57161;43.136;24.706;2023-12-22T09:50:08;97428.09;;;10.79;65.38
69879;BME280;57161;43.136;24.706;2023-12-22T09:52:35;97444.25;;;11.00;65.12
69879;BME280;57161;43.136;24.706;2023-12-22T09:55:02;97430.28;;;11.00;64.88
69879;BME280;57161;43.136;24.706;2023-12-22T09:57:29;97407.38;;;10.92;65.31
69879;BME280;57161;43.136;24.706;2023-12-22T09:59:57;97444.69;;;11.06;65.33
69879;BME280;57161;43.136;24.706;2023-12-22T10:02:25;97432.50;;;11.01;65.33
69879;BME280;57161;43.136;24.706;2023-12-22T10:04:52;97422.75;;;11.22;64.95
69879;BME280;57161;43.136;24.706;2023-12-22T10:07:18;97424.81;;;11.31;63.99
69879;BME280;57161;43.136;24.706;2023-12-22T10:09:47;97407.56;;;11.34;63.27
69879;BME280;57161;43.136;24.706;2023-12-22T10:12:14;97391.19;;;11.50;63.10
69879;BME280;57161;43.136;24.706;2023-12-22T10:14:40;97399.81;;;11.73;61.95
69879;BME280;57161;43.136;24.706;2023-12-22T10:17:06;97421.53;;;11.94;61.53
69879;BME280;57161;43.136;24.706;2023-12-22T10:19:31;97382.81;;;11.91;61.19
69879;BME280;57161;43.136;24.706;2023-12-22T10:21:56;97414.00;;;11.97;61.10
69879;BME280;57161;43.136;24.706;2023-12-22T10:24:57;97400.13;;;11.99;60.70
69879;BME280;57161;43.136;24.706;2023-12-22T10:27:23;97353.84;;;11.77;60.53
69879;BME280;57161;43.136;24.706;2023-12-22T10:29:49;97377.09;;;11.89;60.67
69879;BME280;57161;43.136;24.706;2023-12-22T10:32:15;97377.34;;;11.93;60.43
69879;BME280;57161;43.136;24.706;2023-12-22T10:34:41;97371.78;;;11.83;60.88
69879;BME280;57161;43.136;24.706;2023-12-22T10:37:08;97353.00;;;11.64;61.20
69879;BME280;57161;43.136;24.706;2023-12-22T10:39:36;97370.88;;;11.50;61.70
69879;BME280;57161;43.136;24.706;2023-12-22T10:42:02;97369.41;;;11.49;62.29
69879;BME280;57161;43.136;24.706;2023-12-22T10:44:29;97358.81;;;11.57;62.35
69879;BME280;57161;43.136;24.706;2023-12-22T10:46:55;97341.44;;;11.58;61.63
69879;BME280;57161;43.136;24.706;2023-12-22T10:49:21;97319.34;;;11.53;61.14
69879;BME280;57161;43.136;24.706;2023-12-22T10:51:47;97327.31;;;11.56;60.38
69879;BME280;57161;43.136;24.706;2023-12-22T10:54:13;97319.88;;;11.39;60.47
69879;BME280;57161;43.136;24.706;2023-12-22T10:56:39;97343.63;;;11.60;60.17
69879;BME280;57161;43.136;24.706;2023-12-22T10:59:05;97313.00;;;11.62;59.37
69879;BME280;57161;43.136;24.706;2023-12-22T11:01:32;97323.03;;;11.86;58.61
69879;BME280;57161;43.136;24.706;2023-12-22T11:04:01;97326.78;;;12.00;58.27
69879;BME280;57161;43.136;24.706;2023-12-22T11:06:29;97343.66;;;12.12;57.15
69879;BME280;57161;43.136;24.706;2023-12-22T11:08:57;97328.50;;;12.27;56.45
69879;BME280;57161;43.136;24.706;2023-12-22T11:11:38;97330.66;;;12.38;55.42
69879;BME280;57161;43.136;24.706;2023-12-22T11:14:05;97306.69;;;12.47;53.85
69879;BME280;57161;43.136;24.706;2023-12-22T11:16:32;97326.25;;;12.68;53.38
69879;BME280;57161;43.136;24.706;2023-12-22T11:18:59;97331.69;;;12.87;53.07
69879;BME280;57161;43.136;24.706;2023-12-22T11:21:25;97315.47;;;12.98;53.28
69879;BME280;57161;43.136;24.706;2023-12-22T11:23:52;97335.47;;;12.92;51.58
69879;BME280;57161;43.136;24.706;2023-12-22T11:26:19;97320.81;;;12.82;52.44
69879;BME280;57161;43.136;24.706;2023-12-22T11:28:46;97338.09;;;12.78;52.11
69879;BME280;57161;43.136;24.706;2023-12-22T11:31:12;97321.09;;;12.53;52.16
69879;BME280;57161;43.136;24.706;2023-12-22T11:33:40;97317.63;;;12.43;52.47
69879;BME280;57161;43.136;24.706;2023-12-22T11:36:08;97332.31;;;12.53;51.97
69879;BME280;57161;43.136;24.706;2023-12-22T11:38:35;97340.38;;;12.37;52.61
69879;BME280;57161;43.136;24.706;2023-12-22T11:41:01;97342.03;;;12.30;52.98
69879;BME280;57161;43.136;24.706;2023-12-22T11:43:28;97334.38;;;12.10;53.18
69879;BME280;57161;43.136;24.706;2023-12-22T11:45:55;97320.03;;;11.63;52.88
69879;BME280;57161;43.136;24.706;2023-12-22T11:48:22;97342.91;;;11.90;53.03
69879;BME280;57161;43.136;24.706;2023-12-22T11:50:47;97337.22;;;11.79;52.36
69879;BME280;57161;43.136;24.706;2023-12-22T11:53:20;97357.09;;;11.73;52.13
69879;BME280;57161;43.136;24.706;2023-12-22T11:56:05;97362.84;;;11.75;52.38
69879;BME280;57161;43.136;24.706;2023-12-22T11:58:37;97354.09;;;11.90;51.41
69879;BME280;57161;43.136;24.706;2023-12-22T12:01:05;97361.53;;;11.66;50.89
69879;BME280;57161;43.136;24.706;2023-12-22T12:03:31;97380.88;;;11.53;51.58
69879;BME280;57161;43.136;24.706;2023-12-22T12:08:38;97391.25;;;11.40;51.88
69879;BME280;57161;43.136;24.706;2023-12-22T12:11:04;97403.03;;;11.29;52.55
69879;BME280;57161;43.136;24.706;2023-12-22T12:13:31;97380.41;;;11.16;51.82
69879;BME280;57161;43.136;24.706;2023-12-22T12:15:58;97385.22;;;11.34;51.57
69879;BME280;57161;43.136;24.706;2023-12-22T12:18:30;97386.97;;;11.39;50.91
69879;BME280;57161;43.136;24.706;2023-12-22T12:20:56;97384.19;;;11.30;51.94
69879;BME280;57161;43.136;24.706;2023-12-22T12:23:26;97379.59;;;11.44;51.92
69879;BME280;57161;43.136;24.706;2023-12-22T12:25:53;97375.75;;;11.49;51.93
69879;BME280;57161;43.136;24.706;2023-12-22T12:28:25;97380.94;;;11.43;51.80
69879;BME280;57161;43.136;24.706;2023-12-22T12:30:57;97378.47;;;11.18;51.74
69879;BME280;57161;43.136;24.706;2023-12-22T12:33:27;97371.06;;;10.92;51.01
69879;BME280;57161;43.136;24.706;2023-12-22T12:35:56;97395.16;;;10.87;51.85
69879;BME280;57161;43.136;24.706;2023-12-22T12:38:35;97397.06;;;10.94;51.95
69879;BME280;57161;43.136;24.706;2023-12-22T12:41:03;97360.91;;;10.87;52.19
69879;BME280;57161;43.136;24.706;2023-12-22T12:43:29;97375.72;;;10.99;52.37
69879;BME280;57161;43.136;24.706;2023-12-22T12:45:54;97366.63;;;10.89;52.58
69879;BME280;57161;43.136;24.706;2023-12-22T12:48:21;97374.88;;;10.96;52.88
69879;BME280;57161;43.136;24.706;2023-12-22T12:50:47;97381.19;;;10.87;53.00
69879;BME280;57161;43.136;24.706;2023-12-22T12:53:13;97375.47;;;10.75;53.07
69879;BME280;57161;43.136;24.706;2023-12-22T12:55:38;97369.13;;;10.85;53.25